Time,TemperatureF,DewpointF,PressureIn,WindDirection,WindDirectionDegrees,WindSpeedMPH,WindSpeedGustMPH,Humidity,HourlyPrecipIn,Conditions,Clouds,dailyrainin,SoftwareType,DateUTC
2013-10-31 00:13:00,62.0,61.0,29.82,ENE,57,1.0,-999.0,95,-99.99,,,-99.99,,2013-10-31 05:13:00,
2013-10-31 00:23:00,63.0,62.0,29.82,ENE,57,0.0,-999.0,95,-99.99,,,-99.99,,2013-10-31 05:23:00,
2013-10-31 00:33:00,63.0,62.0,29.82,ENE,57,0.0,-999.0,95,-99.99,,,-99.99,,2013-10-31 05:33:00,
2013-10-31 00:43:00,63.0,62.0,29.82,ENE,57,0.0,-999.0,95,-99.99,,,-99.99,,2013-10-31 05:43:00,
2013-10-31 00:52:00,63.0,61.0,29.80,NNW,344,0.0,-999.0,93,-99.99,,,-99.99,,2013-10-31 05:52:00,
2013-10-31 01:12:00,63.0,61.0,29.80,NE,43,1.0,-999.0,93,-99.99,,,-99.99,,2013-10-31 06:12:00,
2013-10-31 01:22:00,64.0,62.0,29.79,NNE,33,0.0,-999.0,93,-99.99,,,-99.99,,2013-10-31 06:22:00,
2013-10-31 01:42:00,64.0,62.0,29.79,NE,50,0.0,-999.0,93,-99.99,,,-99.99,,2013-10-31 06:42:00,
2013-10-31 01:53:00,64.0,62.0,29.78,NE,47,1.0,-999.0,93,-99.99,,,-99.99,,2013-10-31 06:53:00,
2013-10-31 02:11:00,63.0,61.0,29.77,NE,40,0.0,-999.0,93,-99.99,,,-99.99,,2013-10-31 07:11:00,
2013-10-31 02:21:00,63.0,61.0,29.77,NE,40,0.0,-999.0,94,-99.99,,,-99.99,,2013-10-31 07:21:00,
2013-10-31 02:42:00,63.0,61.0,29.76,NE,40,0.0,-999.0,94,-99.99,,,-99.99,,2013-10-31 07:42:00,
2013-10-31 02:52:00,63.0,61.0,29.75,NE,40,0.0,-999.0,94,-99.99,,,-99.99,,2013-10-31 07:52:00,
2013-10-31 03:12:00,63.0,62.0,29.72,NE,40,0.0,-999.0,95,-99.99,,,-99.99,,2013-10-31 08:12:00,
2013-10-31 03:22:00,63.0,62.0,29.74,NNW,344,0.0,-999.0,95,-99.99,,,-99.99,,2013-10-31 08:22:00,
2013-10-31 03:42:00,64.0,62.0,29.72,ENE,60,1.0,-999.0,94,-99.99,,,-99.99,,2013-10-31 08:42:00,
2013-10-31 03:52:00,64.0,62.0,29.69,East,84,1.0,-999.0,93,-99.99,,,-99.99,,2013-10-31 08:52:00,
2013-10-31 04:11:00,64.0,62.0,29.67,ENE,67,2.0,-999.0,93,-99.99,,,-99.99,,2013-10-31 09:11:00,
2013-10-31 04:22:00,64.0,62.0,29.65,NNE,31,1.0,-999.0,93,-99.99,,,-99.99,,2013-10-31 09:22:00,
2013-10-31 04:33:00,64.0,62.0,29.65,NNE,31,1.0,-999.0,93,-99.99,,,-99.99,,2013-10-31 09:33:00,
2013-10-31 04:43:00,64.0,62.0,29.65,NNE,31,1.0,-999.0,93,-99.99,,,-99.99,,2013-10-31 09:43:00,
2013-10-31 04:53:00,64.0,62.0,29.68,SW,227,0.0,-999.0,93,-99.99,,,-99.99,,2013-10-31 09:53:00,
2013-10-31 05:13:00,64.0,62.0,29.67,SW,227,0.0,-999.0,94,-99.99,,,-99.99,,2013-10-31 10:13:00,
2013-10-31 05:23:00,63.0,61.0,29.64,SW,228,1.0,-999.0,94,-99.99,,,-99.99,,2013-10-31 10:23:00,
2013-10-31 05:42:00,64.0,62.0,29.64,WSW,242,0.0,-999.0,94,-99.99,,,-99.99,,2013-10-31 10:42:00,
2013-10-31 05:53:00,64.0,62.0,29.65,WSW,242,0.0,-999.0,94,-99.99,,,-99.99,,2013-10-31 10:53:00,
2013-10-31 06:12:00,63.0,61.0,29.63,WSW,242,0.0,-999.0,94,-99.99,,,-99.99,,2013-10-31 11:12:00,
2013-10-31 06:21:00,63.0,62.0,29.62,WSW,242,0.0,-999.0,95,-99.99,,,-99.99,,2013-10-31 11:21:00,
2013-10-31 06:42:00,63.0,62.0,29.63,WSW,242,0.0,-999.0,95,-99.99,,,-99.99,,2013-10-31 11:42:00,
2013-10-31 06:52:00,63.0,62.0,29.62,WSW,242,0.0,-999.0,95,-99.99,,,-99.99,,2013-10-31 11:52:00,
2013-10-31 07:12:00,63.0,62.0,29.62,WSW,242,0.0,-999.0,95,-99.99,,,-99.99,,2013-10-31 12:12:00,
2013-10-31 07:22:00,63.0,62.0,29.59,NW,324,0.0,-999.0,95,-99.99,,,-99.99,,2013-10-31 12:22:00,
2013-10-31 07:52:00,63.0,62.0,29.57,NW,324,0.0,-999.0,95,-99.99,,,-99.99,,2013-10-31 12:52:00,
2013-10-31 08:12:00,63.0,62.0,29.57,NW,324,0.0,-999.0,95,-99.99,,,-99.99,,2013-10-31 13:12:00,
2013-10-31 08:22:00,63.0,62.0,29.57,NW,324,0.0,-999.0,95,-99.99,,,-99.99,,2013-10-31 13:22:00,
2013-10-31 08:42:00,63.0,62.0,29.57,NW,324,0.0,-999.0,95,-99.99,,,-99.99,,2013-10-31 13:42:00,
2013-10-31 08:52:00,63.0,62.0,29.57,NW,324,0.0,-999.0,95,-99.99,,,-99.99,,2013-10-31 13:52:00,
2013-10-31 09:11:00,63.0,62.0,29.57,NW,324,0.0,-999.0,95,-99.99,,,-99.99,,2013-10-31 14:11:00,
2013-10-31 09:21:00,63.0,62.0,29.57,NW,324,0.0,-999.0,96,-99.99,,,-99.99,,2013-10-31 14:21:00,
2013-10-31 09:42:00,63.0,62.0,29.56,ENE,71,0.0,-999.0,95,-99.99,,,-99.99,,2013-10-31 14:42:00,
2013-10-31 09:52:00,64.0,63.0,29.55,ENE,66,0.0,-999.0,95,-99.99,,,-99.99,,2013-10-31 14:52:00,
2013-10-31 10:11:00,64.0,63.0,29.57,ENE,66,0.0,-999.0,95,-99.99,,,-99.99,,2013-10-31 15:11:00,
2013-10-31 11:23:00,64.0,63.0,29.57,WSW,248,0.0,-999.0,95,-99.99,,,-99.99,,2013-10-31 16:23:00,
2013-10-31 11:53:00,65.0,64.0,29.54,WSW,248,0.0,-999.0,95,-99.99,,,-99.99,,2013-10-31 16:53:00,
2013-10-31 12:12:00,66.0,65.0,29.53,ENE,67,0.0,-999.0,96,-99.99,,,-99.99,,2013-10-31 17:12:00,
2013-10-31 12:22:00,66.0,65.0,29.54,ENE,74,0.0,-999.0,95,-99.99,,,-99.99,,2013-10-31 17:22:00,
2013-10-31 12:43:00,67.0,65.0,29.52,NE,53,0.0,-999.0,94,-99.99,,,-99.99,,2013-10-31 17:43:00,
2013-10-31 12:52:00,68.0,66.0,29.51,West,265,0.0,-999.0,92,-99.99,,,-99.99,,2013-10-31 17:52:00,
2013-10-31 13:02:00,68.0,66.0,29.51,West,265,0.0,-999.0,92,-99.99,,,-99.99,,2013-10-31 18:02:00,
2013-10-31 13:22:00,71.0,66.0,29.47,West,277,2.0,-999.0,83,-99.99,,,-99.99,,2013-10-31 18:22:00,
2013-10-31 13:52:00,74.0,66.0,29.45,West,269,1.0,-999.0,76,-99.99,,,-99.99,,2013-10-31 18:52:00,
2013-10-31 14:21:00,75.0,65.0,29.42,West,265,3.0,-999.0,71,-99.99,,,-99.99,,2013-10-31 19:21:00,
2013-10-31 14:52:00,76.0,64.0,29.41,WSW,256,4.0,-999.0,66,-99.99,,,-99.99,,2013-10-31 19:52:00,
2013-10-31 15:22:00,75.0,63.0,29.40,WSW,254,1.0,-999.0,67,-99.99,,,-99.99,,2013-10-31 20:22:00,
2013-10-31 15:52:00,76.0,62.0,29.39,WNW,284,1.0,-999.0,62,-99.99,,,-99.99,,2013-10-31 20:52:00,
2013-10-31 16:22:00,75.0,59.0,29.39,WSW,253,2.0,-999.0,58,-99.99,,,-99.99,,2013-10-31 21:22:00,
2013-10-31 16:44:00,74.0,59.0,29.40,WNW,284,3.0,-999.0,59,-99.99,,,-99.99,,2013-10-31 21:44:00,
2013-10-31 16:54:00,74.0,60.0,29.40,West,263,1.0,-999.0,62,-99.99,,,-99.99,,2013-10-31 21:54:00,
2013-10-31 17:13:00,75.0,55.0,29.41,WNW,285,6.0,-999.0,50,-99.99,,,-99.99,,2013-10-31 22:13:00,
2013-10-31 17:24:00,74.0,52.0,29.43,West,260,5.0,-999.0,46,-99.99,,,-99.99,,2013-10-31 22:24:00,
2013-10-31 17:53:00,73.0,49.0,29.47,WSW,237,6.0,-999.0,43,-99.99,,,-99.99,,2013-10-31 22:53:00,
2013-10-31 18:22:00,69.0,48.0,29.51,WSW,242,8.0,-999.0,48,-99.99,,,-99.99,,2013-10-31 23:22:00,
2013-10-31 18:53:00,67.0,52.0,29.54,WNW,296,4.0,-999.0,59,-99.99,,,-99.99,,2013-10-31 23:53:00,
2013-10-31 19:21:00,63.0,53.0,29.58,West,273,3.0,-999.0,70,-99.99,,,-99.99,,2013-11-01 00:21:00,
2013-10-31 19:42:00,63.0,54.0,29.59,NW,308,4.0,-999.0,72,-99.99,,,-99.99,,2013-11-01 00:42:00,
2013-10-31 19:52:00,62.0,52.0,29.61,South,188,5.0,-999.0,69,-99.99,,,-99.99,,2013-11-01 00:52:00,
2013-10-31 20:22:00,60.0,51.0,29.63,West,277,4.0,-999.0,72,-99.99,,,-99.99,,2013-11-01 01:22:00,
2013-10-31 20:52:00,59.0,51.0,29.65,West,279,1.0,-999.0,74,-99.99,,,-99.99,,2013-11-01 01:52:00,
2013-10-31 21:22:00,57.0,50.0,29.67,West,275,0.0,-999.0,78,-99.99,,,-99.99,,2013-11-01 02:22:00,
2013-10-31 21:52:00,56.0,50.0,29.68,WNW,302,0.0,-999.0,81,-99.99,,,-99.99,,2013-11-01 02:52:00,
2013-10-31 22:22:00,53.0,49.0,29.70,WNW,302,0.0,-999.0,86,-99.99,,,-99.99,,2013-11-01 03:22:00,
2013-10-31 22:54:00,52.0,49.0,29.70,WNW,302,0.0,-999.0,89,-99.99,,,-99.99,,2013-11-01 03:54:00,
2013-10-31 23:24:00,51.0,48.0,29.71,WNW,302,0.0,-999.0,91,-99.99,,,-99.99,,2013-11-01 04:24:00,
2013-10-31 23:54:00,50.0,48.0,29.72,WNW,302,0.0,-999.0,92,-99.99,,,-99.99,,2013-11-01 04:54:00,